createdAt,value
2022-10-11T00:00:45.827Z,5.80
2022-10-11T00:03:14.677Z,5.93
2022-10-11T00:05:54.610Z,5.72
2022-10-11T00:08:34.038Z,5.63
2022-10-11T00:11:28.358Z,5.53
2022-10-11T00:14:14.686Z,6.13
2022-10-11T00:16:54.526Z,6.95
2022-10-11T00:19:34.155Z,5.93
2022-10-11T00:22:13.613Z,6.20
2022-10-11T00:24:53.037Z,5.88
2022-10-11T00:27:35.096Z,6.53
2022-10-11T00:30:13.689Z,6.07
2022-10-11T00:32:52.952Z,6.63
2022-10-11T00:35:30.925Z,6.07
2022-10-11T00:38:09.232Z,5.82
2022-10-11T00:40:47.333Z,6.60
2022-10-11T00:43:28.549Z,6.63
2022-10-11T00:46:28.836Z,5.75
2022-10-11T00:49:27.904Z,5.50
2022-10-11T00:52:15.724Z,6.40
2022-10-11T00:54:58.570Z,6.45
2022-10-11T00:57:42.099Z,5.82
2022-10-11T01:00:21.193Z,6.65
2022-10-11T01:03:01.008Z,6.78
2022-10-11T01:05:40.268Z,7.20
2022-10-11T01:08:21.054Z,7.28
2022-10-11T01:10:59.828Z,6.32
2022-10-11T01:13:40.666Z,5.82
2022-10-11T01:16:31.315Z,6.03
2022-10-11T01:19:10.711Z,5.75
2022-10-11T01:21:51.962Z,6.28
2022-10-11T01:24:57.468Z,6.15
2022-10-11T01:28:00.568Z,6.35
2022-10-11T01:30:40.036Z,6.43
2022-10-11T01:33:24.709Z,5.93
2022-10-11T01:36:10.132Z,6.10
2022-10-11T01:38:53.937Z,5.65
2022-10-11T01:41:46.453Z,6.13
2022-10-11T01:44:27.100Z,6.53
2022-10-11T01:47:05.599Z,6.72
2022-10-11T01:49:46.190Z,5.68
2022-10-11T01:52:27.647Z,6.22
2022-10-11T01:55:47.420Z,5.93
2022-10-11T01:58:45.333Z,5.85
2022-10-11T02:01:23.314Z,6.72
2022-10-11T02:04:37.333Z,6.63
2022-10-11T02:07:28.586Z,5.93
2022-10-11T02:10:35.618Z,5.47
2022-10-11T02:13:23.485Z,6.13
2022-10-11T02:16:06.952Z,5.90
2022-10-11T02:18:50.269Z,6.43
2022-10-11T02:21:31.977Z,5.95
2022-10-11T02:24:22.489Z,6.47
2022-10-11T02:27:03.580Z,7.25
2022-10-11T02:29:45.548Z,6.20
2022-10-11T02:32:25.739Z,5.97
2022-10-11T02:35:05.430Z,6.45
2022-10-11T02:37:59.197Z,6.25
2022-10-11T02:40:45.188Z,6.05
2022-10-11T02:43:33.141Z,6.22
2022-10-11T02:46:13.077Z,5.93
2022-10-11T02:48:51.496Z,6.07
2022-10-11T02:51:31.996Z,6.20
2022-10-11T02:54:10.792Z,6.53
2022-10-11T02:56:48.836Z,5.70
2022-10-11T02:59:27.083Z,5.75
2022-10-11T03:02:05.532Z,6.32
2022-10-11T03:04:45.020Z,6.07
2022-10-11T03:07:23.345Z,6.65
2022-10-11T03:10:01.413Z,6.85
2022-10-11T03:12:39.769Z,5.82
2022-10-11T03:15:17.819Z,5.68
2022-10-11T03:17:56.329Z,6.05
2022-10-11T03:20:34.244Z,6.13
2022-10-11T03:23:13.537Z,7.03
2022-10-11T03:25:52.355Z,5.68
2022-10-11T03:28:30.615Z,6.00
2022-10-11T03:31:08.658Z,6.32
2022-10-11T03:33:48.838Z,6.70
2022-10-11T03:36:28.281Z,6.35
2022-10-11T03:39:06.727Z,6.43
2022-10-11T03:41:44.605Z,6.57
2022-10-11T03:44:22.915Z,6.88
2022-10-11T03:47:01.037Z,6.03
2022-10-11T03:49:43.461Z,6.18
2022-10-11T03:52:22.294Z,6.45
2022-10-11T03:55:00.751Z,5.97
2022-10-11T03:57:38.823Z,6.63
2022-10-11T04:00:16.989Z,6.03
2022-10-11T04:02:55.095Z,6.00
2022-10-11T04:05:33.548Z,5.97
2022-10-11T04:08:19.899Z,5.53
2022-10-11T04:10:57.965Z,6.45
2022-10-11T04:13:36.782Z,6.70
2022-10-11T04:16:15.916Z,6.30
2022-10-11T04:18:54.092Z,5.93
2022-10-11T04:21:32.238Z,5.72
2022-10-11T04:24:12.000Z,6.07
2022-10-11T04:26:50.203Z,5.97
2022-10-11T04:29:32.351Z,5.55
2022-10-11T04:32:11.410Z,6.25
2022-10-11T04:34:49.818Z,6.30
2022-10-11T04:37:28.097Z,6.07
2022-10-11T04:40:07.579Z,5.75
2022-10-11T04:42:46.336Z,5.88
2022-10-11T04:45:25.717Z,6.30
2022-10-11T04:48:06.296Z,6.60
2022-10-11T04:50:46.081Z,6.05
2022-10-11T04:53:28.489Z,6.40
2022-10-11T04:56:11.265Z,7.53
2022-10-11T04:58:49.732Z,7.03
2022-10-11T05:01:28.930Z,6.53
2022-10-11T05:04:18.198Z,5.53
2022-10-11T05:07:03.461Z,6.80
2022-10-11T05:09:42.076Z,5.85
2022-10-11T05:12:22.108Z,6.68
2022-10-11T05:15:01.219Z,6.78
2022-10-11T05:17:39.658Z,6.80
2022-10-11T05:20:18.905Z,6.60
2022-10-11T05:22:59.371Z,6.75
2022-10-11T05:25:38.823Z,6.70
2022-10-11T05:28:29.979Z,7.05
2022-10-11T05:31:09.818Z,6.60
2022-10-11T05:33:48.762Z,7.55
2022-10-11T05:36:28.342Z,7.78
2022-10-11T05:39:06.949Z,6.78
2022-10-11T05:41:49.322Z,7.28
2022-10-11T05:44:27.583Z,7.25
2022-10-11T05:47:05.911Z,7.38
2022-10-11T05:49:43.918Z,6.97
2022-10-11T05:52:23.398Z,7.13
2022-10-11T05:55:03.427Z,6.75
2022-10-11T05:57:41.919Z,7.18
2022-10-11T06:00:22.998Z,6.05
2022-10-11T06:03:03.012Z,6.78
2022-10-11T06:05:41.494Z,6.47
2022-10-11T06:08:20.993Z,6.40
2022-10-11T06:11:12.294Z,6.97
2022-10-11T06:14:02.421Z,6.10
2022-10-11T06:16:59.168Z,6.72
2022-10-11T06:19:52.251Z,6.95
2022-10-11T06:22:47.576Z,6.53
2022-10-11T06:25:40.540Z,7.30
2022-10-11T06:28:36.691Z,6.95
2022-10-11T06:31:29.014Z,7.50
2022-10-11T06:34:21.890Z,7.25
2022-10-11T06:37:20.370Z,6.40
2022-10-11T06:40:25.142Z,7.55
2022-10-11T06:43:24.878Z,7.57
2022-10-11T06:46:22.915Z,8.13
2022-10-11T06:49:44.366Z,7.30
2022-10-11T06:52:47.761Z,6.95
2022-10-11T06:55:43.721Z,8.15
2022-10-11T06:58:55.210Z,7.57
2022-10-11T07:01:50.393Z,7.82
2022-10-11T07:04:39.474Z,7.57
2022-10-11T07:07:44.492Z,8.07
2022-10-11T07:10:41.009Z,8.32
2022-10-11T07:13:33.325Z,7.90
2022-10-11T07:16:29.605Z,6.93
2022-10-11T07:19:27.419Z,6.82
2022-10-11T07:22:28.156Z,7.25
2022-10-11T07:25:32.236Z,6.97
2022-10-11T07:28:25.816Z,6.22
2022-10-11T07:31:24.870Z,7.03
2022-10-11T07:34:17.705Z,6.80
2022-10-11T07:37:13.815Z,6.78
2022-10-11T07:40:11.411Z,6.57
2022-10-11T07:43:03.932Z,6.70
2022-10-11T07:46:04.995Z,6.65
2022-10-11T07:49:00.854Z,7.72
2022-10-11T07:51:59.987Z,6.68
2022-10-11T07:55:07.922Z,7.00
2022-10-11T07:58:10.984Z,6.68
2022-10-11T08:01:12.091Z,7.20
2022-10-11T08:03:52.475Z,7.38
2022-10-11T08:06:52.463Z,7.32
2022-10-11T08:09:48.306Z,6.78
2022-10-11T08:12:47.522Z,7.13
2022-10-11T08:15:41.320Z,6.70
2022-10-11T08:18:38.353Z,6.50
2022-10-11T08:21:30.780Z,7.38
2022-10-11T08:24:35.982Z,7.70
2022-10-11T08:27:31.911Z,7.40
2022-10-11T08:30:34.039Z,7.78
2022-10-11T08:33:29.794Z,7.45
2022-10-11T08:36:40.289Z,7.13
2022-10-11T08:39:17.132Z,7.40
2022-10-11T08:42:40.760Z,7.47
2022-10-11T08:45:41.591Z,8.20
2022-10-11T08:48:41.964Z,8.88
2022-10-11T08:51:42.147Z,7.00
2022-10-11T08:54:37.896Z,8.05
2022-10-11T08:57:52.344Z,7.95
2022-10-11T09:00:50.387Z,7.72
2022-10-11T09:03:42.873Z,8.25
2022-10-11T09:06:24.099Z,8.20
2022-10-11T09:09:20.521Z,7.38
2022-10-11T09:12:56.619Z,7.55
2022-10-11T09:15:47.062Z,7.88
2022-10-11T09:18:51.070Z,7.18
2022-10-11T09:21:40.799Z,9.02
2022-10-11T09:24:26.875Z,9.25
2022-10-11T09:26:56.890Z,9.07
2022-10-11T09:29:33.717Z,8.82
2022-10-11T09:32:02.030Z,8.60
2022-10-11T09:34:34.295Z,10.10
2022-10-11T09:37:23.717Z,9.52
2022-10-11T09:39:59.042Z,10.30
2022-10-11T09:42:27.171Z,9.77
2022-10-11T09:44:57.421Z,9.68
2022-10-11T09:47:30.469Z,8.98
2022-10-11T09:50:03.643Z,10.55
2022-10-11T09:52:34.411Z,9.45
2022-10-11T09:55:05.710Z,9.38
2022-10-11T09:57:37.771Z,9.32
2022-10-11T10:00:08.724Z,9.57
2022-10-11T10:02:53.922Z,9.73
2022-10-11T10:05:28.139Z,9.63
2022-10-11T10:08:20.539Z,10.23
2022-10-11T10:11:03.932Z,10.10
2022-10-11T10:13:51.998Z,12.25
2022-10-11T10:16:29.233Z,9.90
2022-10-11T10:18:59.839Z,9.85
2022-10-11T10:21:37.778Z,10.10
2022-10-11T10:24:18.802Z,9.40
2022-10-11T10:27:18.697Z,10.10
2022-10-11T10:30:09.895Z,9.32
2022-10-11T10:32:49.056Z,9.18
2022-10-11T10:35:25.853Z,9.90
2022-10-11T10:38:25.566Z,9.07
2022-10-11T10:40:58.419Z,9.07
2022-10-11T10:43:30.460Z,8.57
2022-10-11T10:46:20.188Z,8.63
2022-10-11T10:49:54.176Z,8.90
2022-10-11T10:52:47.882Z,9.20
2022-10-11T10:55:45.391Z,9.65
2022-10-11T10:58:34.443Z,10.60
2022-10-11T11:01:16.063Z,9.50
2022-10-11T11:03:51.305Z,9.07
2022-10-11T11:06:43.209Z,9.20
2022-10-11T11:09:45.890Z,9.63
2022-10-11T11:12:35.643Z,8.48
2022-10-11T11:15:16.007Z,9.15
2022-10-11T11:18:00.952Z,8.40
2022-10-11T11:20:47.403Z,9.40
2022-10-11T11:23:18.305Z,9.45
2022-10-11T11:25:49.171Z,9.23
2022-10-11T11:28:42.031Z,9.95
2022-10-11T11:32:05.801Z,9.48
2022-10-11T11:34:49.897Z,9.75
2022-10-11T11:37:38.410Z,10.50
2022-10-11T11:40:13.827Z,9.75
2022-10-11T11:42:49.000Z,9.38
2022-10-11T11:45:26.531Z,8.65
2022-10-11T11:48:04.343Z,9.85
2022-10-11T11:50:40.159Z,9.50
2022-10-11T11:53:15.822Z,10.02
2022-10-11T11:55:49.470Z,9.50
2022-10-11T11:58:35.735Z,9.10
2022-10-11T12:01:28.800Z,9.90
2022-10-11T12:04:04.905Z,9.45
2022-10-11T12:06:35.921Z,9.35
2022-10-11T12:09:22.912Z,10.00
2022-10-11T12:12:01.607Z,8.40
2022-10-11T12:14:32.248Z,9.40
2022-10-11T12:17:22.704Z,9.25
2022-10-11T12:20:03.495Z,10.02
2022-10-11T12:22:32.375Z,9.25
2022-10-11T12:25:22.069Z,11.10
2022-10-11T12:27:55.023Z,10.95
2022-10-11T12:30:44.509Z,9.15
2022-10-11T12:33:15.257Z,9.85
2022-10-11T12:35:55.118Z,9.73
2022-10-11T12:38:24.331Z,9.55
2022-10-11T12:40:56.264Z,8.40
2022-10-11T12:43:29.560Z,9.60
2022-10-11T12:45:57.323Z,9.60
2022-10-11T12:48:49.768Z,9.25
2022-10-11T12:51:17.734Z,9.23
2022-10-11T12:54:25.635Z,8.73
2022-10-11T12:57:12.460Z,9.82
2022-10-11T12:59:44.881Z,7.90
2022-10-11T13:02:29.199Z,8.90
2022-10-11T13:05:17.144Z,9.35
2022-10-11T13:07:45.338Z,8.60
2022-10-11T13:10:23.082Z,9.45
2022-10-11T13:12:52.174Z,8.48
2022-10-11T13:15:22.324Z,7.75
2022-10-11T13:17:53.048Z,8.20
2022-10-11T13:20:25.660Z,8.02
2022-10-11T13:22:55.914Z,8.55
2022-10-11T13:25:37.667Z,8.88
2022-10-11T13:28:09.074Z,7.97
2022-10-11T13:30:42.362Z,6.90
2022-10-11T13:33:34.842Z,6.85
2022-10-11T13:36:06.506Z,7.97
2022-10-11T13:38:36.668Z,7.38
2022-10-11T13:41:07.287Z,7.90
2022-10-11T13:43:36.072Z,7.28
2022-10-11T13:46:07.297Z,8.35
2022-10-11T13:48:41.069Z,8.02
2022-10-11T13:51:36.125Z,8.02
2022-10-11T13:54:07.797Z,7.50
2022-10-11T13:56:46.320Z,7.55
2022-10-11T13:59:23.824Z,7.30
2022-10-11T14:02:01.315Z,8.10
2022-10-11T14:04:39.522Z,7.25
2022-10-11T14:07:21.814Z,8.82
2022-10-11T14:09:49.577Z,7.57
2022-10-11T14:12:43.442Z,8.38
2022-10-11T14:15:38.154Z,9.00
2022-10-11T14:18:33.679Z,7.93
2022-10-11T14:21:19.520Z,7.55
2022-10-11T14:23:55.107Z,8.57
2022-10-11T14:26:24.443Z,7.60
2022-10-11T14:28:57.545Z,6.95
2022-10-11T14:31:29.956Z,7.47
2022-10-11T14:33:58.447Z,6.53
2022-10-11T14:36:26.351Z,7.72
2022-10-11T14:38:55.233Z,8.05
2022-10-11T14:41:23.132Z,8.40
2022-10-11T14:43:50.819Z,6.90
2022-10-11T14:46:24.532Z,7.55
2022-10-11T14:48:56.499Z,7.38
2022-10-11T14:53:57.322Z,7.97
2022-10-11T14:56:25.183Z,6.57
2022-10-11T14:58:56.051Z,6.57
2022-10-11T15:01:23.862Z,6.82
2022-10-11T15:03:51.891Z,7.97
2022-10-11T15:06:23.222Z,6.97
2022-10-11T15:08:51.224Z,7.50
2022-10-11T15:11:20.767Z,7.47
2022-10-11T15:13:49.179Z,7.65
2022-10-11T15:16:19.778Z,8.20
2022-10-11T15:18:55.856Z,8.00
2022-10-11T15:21:27.892Z,7.95
2022-10-11T15:23:56.368Z,8.10
2022-10-11T15:26:29.806Z,7.97
2022-10-11T15:28:58.224Z,7.80
2022-10-11T15:31:26.001Z,7.30
2022-10-11T15:33:53.704Z,7.05
2022-10-11T15:36:22.586Z,6.60
2022-10-11T15:38:50.465Z,7.40
2022-10-11T15:41:20.151Z,7.60
2022-10-11T15:43:49.198Z,8.00
2022-10-11T15:46:20.769Z,7.13
2022-10-11T15:48:50.028Z,6.68
2022-10-11T15:51:18.048Z,6.95
2022-10-11T15:53:46.520Z,7.75
2022-10-11T15:56:19.245Z,6.68
2022-10-11T15:58:47.116Z,6.70
2022-10-11T16:01:17.633Z,6.95
2022-10-11T16:03:47.466Z,6.90
2022-10-11T16:06:16.287Z,5.90
2022-10-11T16:08:44.771Z,6.28
2022-10-11T16:11:15.314Z,5.85
2022-10-11T16:13:43.101Z,5.57
2022-10-11T16:16:11.948Z,6.35
2022-10-11T16:18:39.986Z,6.28
2022-10-11T16:21:10.688Z,6.00
2022-10-11T16:23:40.474Z,6.53
2022-10-11T16:26:12.144Z,6.25
2022-10-11T16:28:40.185Z,6.13
2022-10-11T16:31:10.365Z,6.13
2022-10-11T16:33:47.900Z,5.75
2022-10-11T16:36:36.823Z,6.45
2022-10-11T16:39:08.053Z,5.53
2022-10-11T16:41:36.282Z,5.20
2022-10-11T16:44:04.662Z,4.65
2022-10-11T16:46:32.875Z,4.50
2022-10-11T16:49:01.910Z,5.22
2022-10-11T16:51:33.143Z,5.68
2022-10-11T16:54:01.900Z,4.53
2022-10-11T16:56:30.941Z,4.97
2022-10-11T16:58:59.550Z,4.93
2022-10-11T17:01:27.739Z,5.30
2022-10-11T17:03:57.049Z,5.25
2022-10-11T17:06:25.118Z,5.25
2022-10-11T17:08:53.246Z,5.40
2022-10-11T17:11:22.532Z,4.53
2022-10-11T17:13:53.481Z,4.72
2022-10-11T17:16:22.642Z,4.80
2022-10-11T17:18:50.452Z,5.22
2022-10-11T17:21:19.997Z,4.93
2022-10-11T17:23:49.270Z,5.40
2022-10-11T17:26:26.325Z,4.85
2022-10-11T17:28:58.784Z,4.80
2022-10-11T17:31:28.149Z,4.53
2022-10-11T17:33:59.193Z,4.95
2022-10-11T17:36:36.361Z,4.97
2022-10-11T17:39:17.424Z,4.90
2022-10-11T17:41:46.147Z,5.30
2022-10-11T17:44:17.489Z,5.15
2022-10-11T17:46:46.197Z,5.28
2022-10-11T17:49:14.196Z,4.88
2022-10-11T17:51:43.341Z,5.03
2022-10-11T17:54:13.066Z,4.97
2022-10-11T17:56:42.278Z,4.68
2022-10-11T17:59:16.909Z,5.38
2022-10-11T18:01:44.948Z,4.40
2022-10-11T18:04:16.863Z,4.43
2022-10-11T18:06:47.540Z,5.18
2022-10-11T18:09:17.422Z,4.55
2022-10-11T18:11:46.192Z,4.68
2022-10-11T18:14:14.183Z,4.70
2022-10-11T18:16:42.898Z,4.40
2022-10-11T18:19:12.828Z,4.65
2022-10-11T18:21:40.990Z,4.60
2022-10-11T18:24:33.497Z,4.63
2022-10-11T18:27:01.754Z,4.75
2022-10-11T18:29:29.448Z,4.93
2022-10-11T18:32:07.051Z,4.13
2022-10-11T18:34:35.841Z,3.72
2022-10-11T18:37:04.100Z,5.25
2022-10-11T18:39:31.814Z,4.78
2022-10-11T18:42:02.118Z,4.65
2022-10-11T18:44:35.509Z,5.25
2022-10-11T18:49:31.372Z,5.35
2022-10-11T18:51:59.081Z,5.63
2022-10-11T18:54:27.350Z,5.55
2022-10-11T18:56:55.703Z,5.57
2022-10-11T18:59:25.189Z,5.90
2022-10-11T19:02:26.278Z,6.13
2022-10-11T19:04:54.578Z,6.22
2022-10-11T19:07:23.487Z,6.13
2022-10-11T19:09:54.713Z,7.60
2022-10-11T19:12:23.763Z,7.03
2022-10-11T19:14:52.353Z,6.35
2022-10-11T19:17:23.224Z,7.53
2022-10-11T19:19:51.590Z,7.18
2022-10-11T19:22:19.594Z,7.82
2022-10-11T19:24:50.069Z,8.20
2022-10-11T19:27:18.777Z,8.00
2022-10-11T19:29:47.140Z,8.00
2022-10-11T19:32:15.158Z,7.75
2022-10-11T19:34:43.400Z,8.35
2022-10-11T19:37:13.510Z,8.10
2022-10-11T19:39:42.959Z,8.32
2022-10-11T19:42:10.945Z,8.23
2022-10-11T19:44:39.945Z,7.95
2022-10-11T19:47:07.977Z,8.20
2022-10-11T19:49:36.372Z,7.90
2022-10-11T19:52:04.409Z,7.35
2022-10-11T19:54:32.642Z,7.97
2022-10-11T19:57:00.641Z,8.35
2022-10-11T19:59:28.877Z,7.75
2022-10-11T20:01:56.711Z,8.90
2022-10-11T20:04:51.213Z,8.82
2022-10-11T20:07:13.203Z,8.10
2022-10-11T20:09:40.985Z,8.57
2022-10-11T20:12:09.376Z,8.43
2022-10-11T20:14:37.332Z,9.23
2022-10-11T20:17:05.195Z,8.27
2022-10-11T20:19:33.029Z,8.35
2022-10-11T20:22:01.467Z,8.30
2022-10-11T20:24:34.702Z,8.50
2022-10-11T20:27:04.917Z,8.95
2022-10-11T20:29:32.825Z,8.85
2022-10-11T20:32:00.863Z,9.15
2022-10-11T20:34:28.869Z,7.78
2022-10-11T20:36:56.838Z,7.40
2022-10-11T20:39:24.984Z,7.95
2022-10-11T20:41:52.936Z,7.85
2022-10-11T20:44:20.961Z,8.23
2022-10-11T20:46:54.407Z,8.55
2022-10-11T20:49:24.327Z,8.90
2022-10-11T20:51:52.236Z,8.43
2022-10-11T20:54:20.138Z,7.60
2022-10-11T20:56:48.573Z,7.28
2022-10-11T20:59:16.456Z,7.82
2022-10-11T21:01:44.476Z,8.10
2022-10-11T21:04:18.929Z,7.90
2022-10-11T21:06:48.667Z,8.10
2022-10-11T21:09:17.545Z,8.13
2022-10-11T21:11:45.554Z,7.95
2022-10-11T21:14:13.547Z,8.27
2022-10-11T21:16:41.322Z,7.97
2022-10-11T21:19:13.689Z,8.05
2022-10-11T21:21:41.992Z,7.32
2022-10-11T21:24:10.251Z,7.53
2022-10-11T21:26:38.083Z,8.07
2022-10-11T21:29:05.980Z,8.35
2022-10-11T21:31:34.639Z,7.97
2022-10-11T21:34:05.496Z,8.63
2022-10-11T21:36:33.824Z,8.43
2022-10-11T21:39:01.874Z,7.82
2022-10-11T21:41:30.421Z,8.75
2022-10-11T21:43:58.839Z,8.10
2022-10-11T21:49:20.001Z,8.50
2022-10-11T21:51:47.836Z,8.77
2022-10-11T21:54:16.261Z,7.65
2022-10-11T21:56:44.416Z,7.97
2022-10-11T21:59:12.936Z,7.65
2022-10-11T22:01:42.004Z,6.95
2022-10-11T22:04:10.964Z,7.57
2022-10-11T22:06:39.455Z,7.95
2022-10-11T22:09:08.489Z,7.75
2022-10-11T22:11:37.049Z,7.47
2022-10-11T22:14:04.938Z,7.78
2022-10-11T22:16:33.699Z,8.65
2022-10-11T22:19:01.520Z,8.50
2022-10-11T22:21:29.489Z,7.88
2022-10-11T22:23:57.583Z,7.65
2022-10-11T22:26:30.161Z,8.20
2022-10-11T22:29:00.050Z,7.80
2022-10-11T22:31:28.887Z,8.38
2022-10-11T22:33:58.754Z,8.52
2022-10-11T22:36:27.746Z,7.88
2022-10-11T22:38:55.515Z,8.00
2022-10-11T22:41:23.506Z,7.82
2022-10-11T22:43:51.727Z,9.18
2022-10-11T22:46:19.528Z,8.43
2022-10-11T22:48:47.348Z,8.15
2022-10-11T22:51:15.250Z,8.00
2022-10-11T22:53:43.222Z,8.20
2022-10-11T22:56:11.482Z,7.93
2022-10-11T22:58:39.341Z,8.73
2022-10-11T23:01:12.474Z,7.97
2022-10-11T23:03:40.352Z,7.85
2022-10-11T23:06:08.545Z,8.07
2022-10-11T23:08:36.351Z,7.85
2022-10-11T23:11:05.796Z,7.38
2022-10-11T23:13:33.888Z,7.80
2022-10-11T23:16:06.324Z,6.68
2022-10-11T23:18:34.276Z,7.03
2022-10-11T23:21:02.682Z,7.75
2022-10-11T23:23:30.872Z,7.38
2022-10-11T23:26:07.875Z,7.20
2022-10-11T23:28:35.821Z,7.28
2022-10-11T23:31:13.794Z,6.93
2022-10-11T23:33:41.538Z,7.53
2022-10-11T23:36:18.100Z,6.97
2022-10-11T23:38:49.596Z,7.45
2022-10-11T23:41:17.437Z,7.50
2022-10-11T23:43:45.228Z,7.00
2022-10-11T23:46:13.065Z,7.45
2022-10-11T23:48:40.969Z,6.38
2022-10-11T23:51:09.154Z,6.45
2022-10-11T23:53:37.745Z,6.90
2022-10-11T23:56:07.011Z,6.80
2022-10-11T23:58:35.059Z,6.63
